sensor_id;sensor_type;location;lat;lon;timestamp;P1;durP1;ratioP1;P2;durP2;ratioP2
11797;SDS011;5956;51.428;6.682;2022-08-19T00:01:27;7.55;;;7.05;;
11797;SDS011;5956;51.428;6.682;2022-08-19T00:03:57;8.07;;;7.32;;
11797;SDS011;5956;51.428;6.682;2022-08-19T00:06:24;7.38;;;6.78;;
11797;SDS011;5956;51.428;6.682;2022-08-19T00:08:51;9.27;;;8.48;;
11797;SDS011;5956;51.428;6.682;2022-08-19T00:11:18;8.90;;;8.18;;
11797;SDS011;5956;51.428;6.682;2022-08-19T00:13:46;8.43;;;7.68;;
11797;SDS011;5956;51.428;6.682;2022-08-19T00:16:13;9.00;;;8.30;;
11797;SDS011;5956;51.428;6.682;2022-08-19T00:18:40;9.10;;;8.35;;
11797;SDS011;5956;51.428;6.682;2022-08-19T00:21:08;9.10;;;8.45;;
11797;SDS011;5956;51.428;6.682;2022-08-19T00:23:35;9.18;;;8.48;;
11797;SDS011;5956;51.428;6.682;2022-08-19T00:26:02;8.80;;;8.10;;
11797;SDS011;5956;51.428;6.682;2022-08-19T00:28:29;8.40;;;7.70;;
11797;SDS011;5956;51.428;6.682;2022-08-19T00:30:56;8.38;;;7.65;;
11797;SDS011;5956;51.428;6.682;2022-08-19T00:33:23;8.02;;;7.32;;
11797;SDS011;5956;51.428;6.682;2022-08-19T00:35:50;8.30;;;7.70;;
11797;SDS011;5956;51.428;6.682;2022-08-19T00:38:18;7.80;;;7.30;;
11797;SDS011;5956;51.428;6.682;2022-08-19T00:40:48;8.90;;;8.20;;
11797;SDS011;5956;51.428;6.682;2022-08-19T00:43:18;8.15;;;7.55;;
11797;SDS011;5956;51.428;6.682;2022-08-19T00:45:46;9.55;;;8.85;;
11797;SDS011;5956;51.428;6.682;2022-08-19T00:48:15;8.93;;;8.27;;
11797;SDS011;5956;51.428;6.682;2022-08-19T00:50:42;8.50;;;7.80;;
11797;SDS011;5956;51.428;6.682;2022-08-19T00:53:11;9.32;;;8.50;;
11797;SDS011;5956;51.428;6.682;2022-08-19T00:55:41;8.40;;;7.80;;
11797;SDS011;5956;51.428;6.682;2022-08-19T00:58:10;8.85;;;8.05;;
11797;SDS011;5956;51.428;6.682;2022-08-19T01:00:39;9.07;;;8.18;;
11797;SDS011;5956;51.428;6.682;2022-08-19T01:03:07;8.63;;;7.93;;
11797;SDS011;5956;51.428;6.682;2022-08-19T01:05:35;9.48;;;8.77;;
11797;SDS011;5956;51.428;6.682;2022-08-19T01:08:04;8.65;;;8.05;;
11797;SDS011;5956;51.428;6.682;2022-08-19T01:10:33;9.40;;;8.70;;
11797;SDS011;5956;51.428;6.682;2022-08-19T01:13:05;10.07;;;9.13;;
11797;SDS011;5956;51.428;6.682;2022-08-19T01:15:32;9.00;;;8.10;;
11797;SDS011;5956;51.428;6.682;2022-08-19T01:18:03;9.60;;;8.85;;
11797;SDS011;5956;51.428;6.682;2022-08-19T01:20:32;8.27;;;7.75;;
11797;SDS011;5956;51.428;6.682;2022-08-19T01:23:01;8.50;;;7.65;;
11797;SDS011;5956;51.428;6.682;2022-08-19T01:25:29;8.30;;;7.60;;
11797;SDS011;5956;51.428;6.682;2022-08-19T01:27:59;9.30;;;8.60;;
11797;SDS011;5956;51.428;6.682;2022-08-19T01:30:27;9.98;;;9.15;;
11797;SDS011;5956;51.428;6.682;2022-08-19T01:32:57;9.50;;;8.60;;
11797;SDS011;5956;51.428;6.682;2022-08-19T01:35:26;10.10;;;9.15;;
11797;SDS011;5956;51.428;6.682;2022-08-19T01:37:55;10.45;;;9.63;;
11797;SDS011;5956;51.428;6.682;2022-08-19T01:40:25;9.88;;;8.82;;
11797;SDS011;5956;51.428;6.682;2022-08-19T01:42:54;9.43;;;8.52;;
11797;SDS011;5956;51.428;6.682;2022-08-19T01:45:22;9.93;;;9.20;;
11797;SDS011;5956;51.428;6.682;2022-08-19T01:47:50;10.05;;;9.35;;
11797;SDS011;5956;51.428;6.682;2022-08-19T01:50:17;10.60;;;9.80;;
11797;SDS011;5956;51.428;6.682;2022-08-19T01:52:44;10.80;;;9.90;;
11797;SDS011;5956;51.428;6.682;2022-08-19T01:55:12;10.80;;;9.70;;
11797;SDS011;5956;51.428;6.682;2022-08-19T01:57:42;10.88;;;9.98;;
11797;SDS011;5956;51.428;6.682;2022-08-19T02:00:11;10.07;;;9.27;;
11797;SDS011;5956;51.428;6.682;2022-08-19T02:02:40;10.77;;;9.75;;
11797;SDS011;5956;51.428;6.682;2022-08-19T02:05:07;11.55;;;10.65;;
11797;SDS011;5956;51.428;6.682;2022-08-19T02:07:35;11.20;;;10.30;;
11797;SDS011;5956;51.428;6.682;2022-08-19T02:10:03;11.77;;;10.70;;
11797;SDS011;5956;51.428;6.682;2022-08-19T02:12:31;10.52;;;9.73;;
11797;SDS011;5956;51.428;6.682;2022-08-19T02:14:59;10.88;;;10.07;;
11797;SDS011;5956;51.428;6.682;2022-08-19T02:17:27;11.18;;;10.27;;
11797;SDS011;5956;51.428;6.682;2022-08-19T02:19:54;11.23;;;10.15;;
11797;SDS011;5956;51.428;6.682;2022-08-19T02:22:21;12.00;;;10.73;;
11797;SDS011;5956;51.428;6.682;2022-08-19T02:24:49;10.70;;;9.85;;
11797;SDS011;5956;51.428;6.682;2022-08-19T02:27:16;10.73;;;9.93;;
11797;SDS011;5956;51.428;6.682;2022-08-19T02:29:42;11.35;;;10.43;;
11797;SDS011;5956;51.428;6.682;2022-08-19T02:32:11;11.82;;;10.82;;
11797;SDS011;5956;51.428;6.682;2022-08-19T02:34:38;12.35;;;11.32;;
11797;SDS011;5956;51.428;6.682;2022-08-19T02:37:06;13.07;;;11.98;;
11797;SDS011;5956;51.428;6.682;2022-08-19T02:39:53;12.30;;;11.30;;
11797;SDS011;5956;51.428;6.682;2022-08-19T02:42:19;11.48;;;10.50;;
11797;SDS011;5956;51.428;6.682;2022-08-19T02:44:46;11.68;;;10.68;;
11797;SDS011;5956;51.428;6.682;2022-08-19T02:47:14;11.73;;;10.82;;
11797;SDS011;5956;51.428;6.682;2022-08-19T02:49:41;12.20;;;11.23;;
11797;SDS011;5956;51.428;6.682;2022-08-19T02:52:08;12.52;;;11.52;;
11797;SDS011;5956;51.428;6.682;2022-08-19T02:54:36;12.02;;;11.13;;
11797;SDS011;5956;51.428;6.682;2022-08-19T02:57:03;12.20;;;11.27;;
11797;SDS011;5956;51.428;6.682;2022-08-19T02:59:30;11.70;;;10.85;;
11797;SDS011;5956;51.428;6.682;2022-08-19T03:01:57;14.10;;;12.80;;
11797;SDS011;5956;51.428;6.682;2022-08-19T03:04:25;11.65;;;10.77;;
11797;SDS011;5956;51.428;6.682;2022-08-19T03:06:52;11.98;;;10.82;;
11797;SDS011;5956;51.428;6.682;2022-08-19T03:09:20;14.52;;;13.40;;
11797;SDS011;5956;51.428;6.682;2022-08-19T03:11:47;14.13;;;12.93;;
11797;SDS011;5956;51.428;6.682;2022-08-19T03:14:13;14.23;;;13.13;;
11797;SDS011;5956;51.428;6.682;2022-08-19T03:16:41;14.25;;;13.10;;
11797;SDS011;5956;51.428;6.682;2022-08-19T03:19:10;13.50;;;12.55;;
11797;SDS011;5956;51.428;6.682;2022-08-19T03:21:38;13.35;;;12.18;;
11797;SDS011;5956;51.428;6.682;2022-08-19T03:24:05;13.52;;;12.52;;
11797;SDS011;5956;51.428;6.682;2022-08-19T03:26:38;14.93;;;13.68;;
11797;SDS011;5956;51.428;6.682;2022-08-19T03:29:06;15.57;;;14.27;;
11797;SDS011;5956;51.428;6.682;2022-08-19T03:31:36;14.35;;;13.15;;
11797;SDS011;5956;51.428;6.682;2022-08-19T03:34:03;14.57;;;13.35;;
11797;SDS011;5956;51.428;6.682;2022-08-19T03:36:30;16.10;;;14.82;;
11797;SDS011;5956;51.428;6.682;2022-08-19T03:38:59;17.23;;;15.73;;
11797;SDS011;5956;51.428;6.682;2022-08-19T03:41:27;15.77;;;14.15;;
11797;SDS011;5956;51.428;6.682;2022-08-19T03:43:55;14.98;;;13.65;;
11797;SDS011;5956;51.428;6.682;2022-08-19T03:46:28;14.88;;;13.77;;
11797;SDS011;5956;51.428;6.682;2022-08-19T03:48:57;17.08;;;15.70;;
11797;SDS011;5956;51.428;6.682;2022-08-19T03:51:26;18.50;;;16.90;;
11797;SDS011;5956;51.428;6.682;2022-08-19T03:53:56;19.88;;;18.15;;
11797;SDS011;5956;51.428;6.682;2022-08-19T03:56:25;20.90;;;18.90;;
11797;SDS011;5956;51.428;6.682;2022-08-19T03:58:54;21.27;;;19.38;;
11797;SDS011;5956;51.428;6.682;2022-08-19T04:01:23;17.88;;;16.45;;
11797;SDS011;5956;51.428;6.682;2022-08-19T04:03:52;20.67;;;19.08;;
11797;SDS011;5956;51.428;6.682;2022-08-19T04:06:21;19.83;;;18.15;;
11797;SDS011;5956;51.428;6.682;2022-08-19T04:08:50;16.45;;;15.13;;
11797;SDS011;5956;51.428;6.682;2022-08-19T04:11:20;15.48;;;14.27;;
11797;SDS011;5956;51.428;6.682;2022-08-19T04:13:50;14.57;;;13.38;;
11797;SDS011;5956;51.428;6.682;2022-08-19T04:16:17;18.23;;;16.50;;
11797;SDS011;5956;51.428;6.682;2022-08-19T04:18:46;17.40;;;15.90;;
11797;SDS011;5956;51.428;6.682;2022-08-19T04:21:15;17.70;;;16.02;;
11797;SDS011;5956;51.428;6.682;2022-08-19T04:23:43;18.55;;;16.75;;
11797;SDS011;5956;51.428;6.682;2022-08-19T04:26:12;17.92;;;16.20;;
11797;SDS011;5956;51.428;6.682;2022-08-19T04:28:39;19.33;;;17.65;;
11797;SDS011;5956;51.428;6.682;2022-08-19T04:31:11;20.70;;;19.00;;
11797;SDS011;5956;51.428;6.682;2022-08-19T04:33:39;21.17;;;19.17;;
11797;SDS011;5956;51.428;6.682;2022-08-19T04:36:06;19.73;;;18.13;;
11797;SDS011;5956;51.428;6.682;2022-08-19T04:38:33;23.80;;;21.80;;
11797;SDS011;5956;51.428;6.682;2022-08-19T04:41:01;24.65;;;22.52;;
11797;SDS011;5956;51.428;6.682;2022-08-19T04:43:43;24.48;;;22.20;;
11797;SDS011;5956;51.428;6.682;2022-08-19T04:46:11;21.95;;;20.00;;
11797;SDS011;5956;51.428;6.682;2022-08-19T04:48:38;20.75;;;18.95;;
11797;SDS011;5956;51.428;6.682;2022-08-19T04:51:05;21.08;;;19.08;;
11797;SDS011;5956;51.428;6.682;2022-08-19T04:53:35;21.80;;;19.77;;
11797;SDS011;5956;51.428;6.682;2022-08-19T04:56:04;21.95;;;20.15;;
11797;SDS011;5956;51.428;6.682;2022-08-19T04:58:34;22.13;;;20.08;;
11797;SDS011;5956;51.428;6.682;2022-08-19T05:01:01;20.23;;;18.55;;
11797;SDS011;5956;51.428;6.682;2022-08-19T05:03:30;19.38;;;17.58;;
11797;SDS011;5956;51.428;6.682;2022-08-19T05:05:59;21.85;;;20.05;;
11797;SDS011;5956;51.428;6.682;2022-08-19T05:08:32;19.77;;;17.98;;
11797;SDS011;5956;51.428;6.682;2022-08-19T05:11:00;23.88;;;21.88;;
11797;SDS011;5956;51.428;6.682;2022-08-19T05:13:27;23.08;;;21.02;;
11797;SDS011;5956;51.428;6.682;2022-08-19T05:15:54;21.77;;;19.98;;
11797;SDS011;5956;51.428;6.682;2022-08-19T05:18:21;22.55;;;20.52;;
11797;SDS011;5956;51.428;6.682;2022-08-19T05:21:06;26.40;;;23.98;;
11797;SDS011;5956;51.428;6.682;2022-08-19T05:23:51;24.88;;;22.58;;
11797;SDS011;5956;51.428;6.682;2022-08-19T05:26:16;24.15;;;21.77;;
11797;SDS011;5956;51.428;6.682;2022-08-19T05:28:42;24.50;;;22.45;;
11797;SDS011;5956;51.428;6.682;2022-08-19T05:31:08;25.48;;;22.90;;
11797;SDS011;5956;51.428;6.682;2022-08-19T05:33:34;25.98;;;23.77;;
11797;SDS011;5956;51.428;6.682;2022-08-19T05:36:02;26.60;;;24.05;;
11797;SDS011;5956;51.428;6.682;2022-08-19T05:38:31;30.63;;;27.58;;
11797;SDS011;5956;51.428;6.682;2022-08-19T05:40:58;30.17;;;27.38;;
11797;SDS011;5956;51.428;6.682;2022-08-19T05:43:25;36.50;;;33.13;;
11797;SDS011;5956;51.428;6.682;2022-08-19T05:45:51;33.42;;;29.98;;
11797;SDS011;5956;51.428;6.682;2022-08-19T05:48:18;40.15;;;36.58;;
11797;SDS011;5956;51.428;6.682;2022-08-19T05:50:45;35.53;;;32.15;;
11797;SDS011;5956;51.428;6.682;2022-08-19T05:53:15;41.97;;;38.08;;
11797;SDS011;5956;51.428;6.682;2022-08-19T05:55:43;42.55;;;38.50;;
11797;SDS011;5956;51.428;6.682;2022-08-19T05:58:10;49.88;;;45.22;;
11797;SDS011;5956;51.428;6.682;2022-08-19T06:00:37;48.90;;;44.30;;
11797;SDS011;5956;51.428;6.682;2022-08-19T06:03:05;52.78;;;47.85;;
11797;SDS011;5956;51.428;6.682;2022-08-19T06:05:32;54.75;;;49.67;;
11797;SDS011;5956;51.428;6.682;2022-08-19T06:07:58;56.20;;;50.92;;
11797;SDS011;5956;51.428;6.682;2022-08-19T06:10:25;54.63;;;49.72;;
11797;SDS011;5956;51.428;6.682;2022-08-19T06:12:53;55.45;;;50.10;;
11797;SDS011;5956;51.428;6.682;2022-08-19T06:15:21;57.58;;;52.28;;
11797;SDS011;5956;51.428;6.682;2022-08-19T06:17:51;57.35;;;52.00;;
11797;SDS011;5956;51.428;6.682;2022-08-19T06:20:18;58.05;;;52.83;;
11797;SDS011;5956;51.428;6.682;2022-08-19T06:22:46;58.50;;;53.00;;
11797;SDS011;5956;51.428;6.682;2022-08-19T06:25:17;58.45;;;53.08;;
11797;SDS011;5956;51.428;6.682;2022-08-19T06:27:44;60.85;;;55.10;;
11797;SDS011;5956;51.428;6.682;2022-08-19T06:30:13;59.90;;;54.40;;
11797;SDS011;5956;51.428;6.682;2022-08-19T06:32:40;61.00;;;55.45;;
11797;SDS011;5956;51.428;6.682;2022-08-19T06:35:07;57.97;;;52.65;;
11797;SDS011;5956;51.428;6.682;2022-08-19T06:37:34;58.78;;;53.28;;
11797;SDS011;5956;51.428;6.682;2022-08-19T06:40:03;61.67;;;56.08;;
11797;SDS011;5956;51.428;6.682;2022-08-19T06:42:30;66.50;;;60.30;;
11797;SDS011;5956;51.428;6.682;2022-08-19T06:44:58;65.65;;;59.55;;
11797;SDS011;5956;51.428;6.682;2022-08-19T06:47:28;59.90;;;54.10;;
11797;SDS011;5956;51.428;6.682;2022-08-19T06:49:56;60.65;;;54.92;;
11797;SDS011;5956;51.428;6.682;2022-08-19T06:52:27;60.10;;;54.35;;
11797;SDS011;5956;51.428;6.682;2022-08-19T06:54:54;61.80;;;55.90;;
11797;SDS011;5956;51.428;6.682;2022-08-19T06:57:21;60.00;;;54.47;;
11797;SDS011;5956;51.428;6.682;2022-08-19T06:59:48;58.53;;;52.90;;
11797;SDS011;5956;51.428;6.682;2022-08-19T07:02:15;58.25;;;52.67;;
11797;SDS011;5956;51.428;6.682;2022-08-19T07:04:43;56.95;;;51.55;;
11797;SDS011;5956;51.428;6.682;2022-08-19T07:07:11;56.88;;;51.50;;
11797;SDS011;5956;51.428;6.682;2022-08-19T07:09:40;57.53;;;52.25;;
11797;SDS011;5956;51.428;6.682;2022-08-19T07:12:09;54.33;;;49.05;;
11797;SDS011;5956;51.428;6.682;2022-08-19T07:14:37;50.83;;;45.90;;
11797;SDS011;5956;51.428;6.682;2022-08-19T07:17:05;52.05;;;47.08;;
11797;SDS011;5956;51.428;6.682;2022-08-19T07:19:36;51.03;;;45.85;;
11797;SDS011;5956;51.428;6.682;2022-08-19T07:22:05;49.33;;;44.53;;
11797;SDS011;5956;51.428;6.682;2022-08-19T07:24:33;46.17;;;41.95;;
11797;SDS011;5956;51.428;6.682;2022-08-19T07:27:00;44.92;;;40.60;;
11797;SDS011;5956;51.428;6.682;2022-08-19T07:29:30;45.58;;;41.22;;
11797;SDS011;5956;51.428;6.682;2022-08-19T07:31:59;46.17;;;41.70;;
11797;SDS011;5956;51.428;6.682;2022-08-19T07:34:27;41.53;;;37.83;;
11797;SDS011;5956;51.428;6.682;2022-08-19T07:36:55;39.60;;;35.70;;
11797;SDS011;5956;51.428;6.682;2022-08-19T07:39:25;38.45;;;34.85;;
11797;SDS011;5956;51.428;6.682;2022-08-19T07:41:55;37.65;;;34.15;;
11797;SDS011;5956;51.428;6.682;2022-08-19T07:44:23;35.33;;;31.92;;
11797;SDS011;5956;51.428;6.682;2022-08-19T07:46:52;34.47;;;31.02;;
11797;SDS011;5956;51.428;6.682;2022-08-19T07:49:21;34.30;;;31.02;;
11797;SDS011;5956;51.428;6.682;2022-08-19T07:51:49;32.17;;;29.10;;
11797;SDS011;5956;51.428;6.682;2022-08-19T07:54:17;37.60;;;34.15;;
11797;SDS011;5956;51.428;6.682;2022-08-19T07:56:47;30.63;;;27.65;;
11797;SDS011;5956;51.428;6.682;2022-08-19T07:59:15;29.17;;;26.58;;
11797;SDS011;5956;51.428;6.682;2022-08-19T08:01:43;28.58;;;25.95;;
11797;SDS011;5956;51.428;6.682;2022-08-19T08:04:10;26.70;;;24.25;;
11797;SDS011;5956;51.428;6.682;2022-08-19T08:06:51;23.90;;;21.73;;
11797;SDS011;5956;51.428;6.682;2022-08-19T08:09:32;27.25;;;24.60;;
11797;SDS011;5956;51.428;6.682;2022-08-19T08:12:03;27.58;;;24.85;;
11797;SDS011;5956;51.428;6.682;2022-08-19T08:14:33;25.80;;;23.38;;
11797;SDS011;5956;51.428;6.682;2022-08-19T08:17:01;28.50;;;25.55;;
11797;SDS011;5956;51.428;6.682;2022-08-19T08:19:29;30.02;;;27.13;;
11797;SDS011;5956;51.428;6.682;2022-08-19T08:21:57;28.88;;;26.05;;
11797;SDS011;5956;51.428;6.682;2022-08-19T08:24:25;34.83;;;31.23;;
11797;SDS011;5956;51.428;6.682;2022-08-19T08:26:53;34.90;;;31.27;;
11797;SDS011;5956;51.428;6.682;2022-08-19T08:29:22;29.27;;;26.60;;
11797;SDS011;5956;51.428;6.682;2022-08-19T08:31:49;29.02;;;26.23;;
11797;SDS011;5956;51.428;6.682;2022-08-19T08:34:16;31.27;;;28.35;;
11797;SDS011;5956;51.428;6.682;2022-08-19T08:36:44;27.75;;;25.10;;
11797;SDS011;5956;51.428;6.682;2022-08-19T08:39:12;27.98;;;25.40;;
11797;SDS011;5956;51.428;6.682;2022-08-19T08:41:42;26.30;;;24.00;;
11797;SDS011;5956;51.428;6.682;2022-08-19T08:44:14;29.30;;;26.60;;
11797;SDS011;5956;51.428;6.682;2022-08-19T08:46:46;28.73;;;26.10;;
11797;SDS011;5956;51.428;6.682;2022-08-19T08:49:19;29.83;;;27.02;;
11797;SDS011;5956;51.428;6.682;2022-08-19T08:51:54;30.85;;;27.80;;
11797;SDS011;5956;51.428;6.682;2022-08-19T08:54:28;27.80;;;25.10;;
11797;SDS011;5956;51.428;6.682;2022-08-19T08:56:58;26.67;;;24.17;;
11797;SDS011;5956;51.428;6.682;2022-08-19T08:59:26;27.50;;;24.85;;
11797;SDS011;5956;51.428;6.682;2022-08-19T09:01:57;29.30;;;26.55;;
11797;SDS011;5956;51.428;6.682;2022-08-19T09:04:24;26.67;;;24.17;;
11797;SDS011;5956;51.428;6.682;2022-08-19T09:06:53;29.23;;;26.52;;
11797;SDS011;5956;51.428;6.682;2022-08-19T09:09:26;26.65;;;24.23;;
11797;SDS011;5956;51.428;6.682;2022-08-19T09:12:02;26.23;;;23.60;;
11797;SDS011;5956;51.428;6.682;2022-08-19T09:14:36;25.77;;;23.55;;
11797;SDS011;5956;51.428;6.682;2022-08-19T09:17:08;27.05;;;24.30;;
11797;SDS011;5956;51.428;6.682;2022-08-19T09:19:36;24.88;;;22.58;;
11797;SDS011;5956;51.428;6.682;2022-08-19T09:22:15;25.98;;;23.55;;
11797;SDS011;5956;51.428;6.682;2022-08-19T09:24:42;24.67;;;22.40;;
11797;SDS011;5956;51.428;6.682;2022-08-19T09:27:08;23.80;;;21.60;;
11797;SDS011;5956;51.428;6.682;2022-08-19T09:29:35;22.77;;;20.67;;
11797;SDS011;5956;51.428;6.682;2022-08-19T09:32:02;24.73;;;22.52;;
11797;SDS011;5956;51.428;6.682;2022-08-19T09:34:31;23.08;;;20.92;;
11797;SDS011;5956;51.428;6.682;2022-08-19T09:36:58;24.70;;;22.42;;
11797;SDS011;5956;51.428;6.682;2022-08-19T09:39:25;25.58;;;22.83;;
11797;SDS011;5956;51.428;6.682;2022-08-19T09:41:52;24.45;;;21.95;;
11797;SDS011;5956;51.428;6.682;2022-08-19T09:44:19;22.30;;;20.40;;
11797;SDS011;5956;51.428;6.682;2022-08-19T09:46:46;19.08;;;17.48;;
11797;SDS011;5956;51.428;6.682;2022-08-19T09:49:13;23.33;;;20.95;;
11797;SDS011;5956;51.428;6.682;2022-08-19T09:51:41;21.73;;;19.83;;
11797;SDS011;5956;51.428;6.682;2022-08-19T09:54:08;24.92;;;22.63;;
11797;SDS011;5956;51.428;6.682;2022-08-19T09:56:35;22.73;;;20.60;;
11797;SDS011;5956;51.428;6.682;2022-08-19T09:59:02;22.27;;;20.27;;
11797;SDS011;5956;51.428;6.682;2022-08-19T10:01:30;22.60;;;20.60;;
11797;SDS011;5956;51.428;6.682;2022-08-19T10:03:58;41.83;;;22.05;;
11797;SDS011;5956;51.428;6.682;2022-08-19T10:06:26;31.23;;;20.38;;
11797;SDS011;5956;51.428;6.682;2022-08-19T10:08:59;35.30;;;20.00;;
11797;SDS011;5956;51.428;6.682;2022-08-19T10:11:26;25.17;;;18.33;;
11797;SDS011;5956;51.428;6.682;2022-08-19T10:13:54;18.15;;;16.25;;
11797;SDS011;5956;51.428;6.682;2022-08-19T10:16:22;22.02;;;16.83;;
11797;SDS011;5956;51.428;6.682;2022-08-19T10:18:51;25.45;;;18.92;;
11797;SDS011;5956;51.428;6.682;2022-08-19T10:21:19;17.52;;;15.65;;
11797;SDS011;5956;51.428;6.682;2022-08-19T10:23:49;18.25;;;14.05;;
11797;SDS011;5956;51.428;6.682;2022-08-19T10:26:19;14.27;;;12.95;;
11797;SDS011;5956;51.428;6.682;2022-08-19T10:28:47;13.05;;;11.95;;
11797;SDS011;5956;51.428;6.682;2022-08-19T10:31:15;14.88;;;13.48;;
11797;SDS011;5956;51.428;6.682;2022-08-19T10:33:45;13.93;;;12.60;;
11797;SDS011;5956;51.428;6.682;2022-08-19T10:36:14;14.68;;;13.38;;
11797;SDS011;5956;51.428;6.682;2022-08-19T10:38:43;14.52;;;13.23;;
11797;SDS011;5956;51.428;6.682;2022-08-19T10:41:12;15.05;;;13.52;;
11797;SDS011;5956;51.428;6.682;2022-08-19T10:43:42;15.23;;;13.73;;
11797;SDS011;5956;51.428;6.682;2022-08-19T10:46:11;15.07;;;13.63;;
11797;SDS011;5956;51.428;6.682;2022-08-19T10:48:39;13.73;;;12.52;;
11797;SDS011;5956;51.428;6.682;2022-08-19T10:51:07;14.93;;;13.57;;
11797;SDS011;5956;51.428;6.682;2022-08-19T10:53:47;16.77;;;15.23;;
11797;SDS011;5956;51.428;6.682;2022-08-19T10:56:13;14.35;;;13.15;;
11797;SDS011;5956;51.428;6.682;2022-08-19T10:58:59;12.23;;;11.02;;
11797;SDS011;5956;51.428;6.682;2022-08-19T11:01:25;13.35;;;11.98;;
11797;SDS011;5956;51.428;6.682;2022-08-19T11:03:50;13.20;;;11.98;;
11797;SDS011;5956;51.428;6.682;2022-08-19T11:06:16;12.52;;;11.48;;
11797;SDS011;5956;51.428;6.682;2022-08-19T11:08:43;12.43;;;11.32;;
11797;SDS011;5956;51.428;6.682;2022-08-19T11:11:11;12.43;;;11.15;;
11797;SDS011;5956;51.428;6.682;2022-08-19T11:13:39;11.02;;;10.02;;
11797;SDS011;5956;51.428;6.682;2022-08-19T11:16:10;12.25;;;11.15;;
11797;SDS011;5956;51.428;6.682;2022-08-19T11:18:39;12.02;;;10.88;;
11797;SDS011;5956;51.428;6.682;2022-08-19T11:21:10;10.20;;;9.30;;
11797;SDS011;5956;51.428;6.682;2022-08-19T11:23:38;9.90;;;9.13;;
11797;SDS011;5956;51.428;6.682;2022-08-19T11:26:05;14.40;;;13.23;;
11797;SDS011;5956;51.428;6.682;2022-08-19T11:28:32;10.23;;;9.23;;
11797;SDS011;5956;51.428;6.682;2022-08-19T11:30:59;9.23;;;8.52;;
11797;SDS011;5956;51.428;6.682;2022-08-19T11:33:30;9.27;;;8.38;;
11797;SDS011;5956;51.428;6.682;2022-08-19T11:35:57;9.65;;;8.75;;
11797;SDS011;5956;51.428;6.682;2022-08-19T11:38:25;10.00;;;9.10;;
11797;SDS011;5956;51.428;6.682;2022-08-19T11:40:55;8.60;;;7.90;;
11797;SDS011;5956;51.428;6.682;2022-08-19T11:43:22;8.13;;;7.50;;
11797;SDS011;5956;51.428;6.682;2022-08-19T11:45:51;7.63;;;7.03;;
11797;SDS011;5956;51.428;6.682;2022-08-19T11:48:18;7.80;;;7.20;;
11797;SDS011;5956;51.428;6.682;2022-08-19T11:50:48;8.27;;;7.68;;
11797;SDS011;5956;51.428;6.682;2022-08-19T11:53:15;7.00;;;6.35;;
11797;SDS011;5956;51.428;6.682;2022-08-19T11:55:44;7.60;;;6.90;;
11797;SDS011;5956;51.428;6.682;2022-08-19T11:58:11;7.10;;;6.60;;
11797;SDS011;5956;51.428;6.682;2022-08-19T12:00:38;8.10;;;7.40;;
11797;SDS011;5956;51.428;6.682;2022-08-19T12:03:05;8.65;;;7.95;;
11797;SDS011;5956;51.428;6.682;2022-08-19T12:05:32;8.88;;;7.80;;
11797;SDS011;5956;51.428;6.682;2022-08-19T12:08:00;7.32;;;6.65;;
11797;SDS011;5956;51.428;6.682;2022-08-19T12:10:27;7.30;;;6.60;;
11797;SDS011;5956;51.428;6.682;2022-08-19T12:12:54;7.07;;;6.50;;
11797;SDS011;5956;51.428;6.682;2022-08-19T12:15:21;8.10;;;7.50;;
11797;SDS011;5956;51.428;6.682;2022-08-19T12:17:48;8.05;;;7.18;;
11797;SDS011;5956;51.428;6.682;2022-08-19T12:20:15;7.38;;;6.78;;
11797;SDS011;5956;51.428;6.682;2022-08-19T12:22:42;8.60;;;7.80;;
11797;SDS011;5956;51.428;6.682;2022-08-19T12:25:10;7.22;;;6.53;;
11797;SDS011;5956;51.428;6.682;2022-08-19T12:27:38;6.72;;;6.13;;
11797;SDS011;5956;51.428;6.682;2022-08-19T12:30:06;6.70;;;6.20;;
11797;SDS011;5956;51.428;6.682;2022-08-19T12:32:35;6.13;;;5.63;;
11797;SDS011;5956;51.428;6.682;2022-08-19T12:35:02;5.90;;;5.45;;
11797;SDS011;5956;51.428;6.682;2022-08-19T12:37:29;5.97;;;5.47;;
11797;SDS011;5956;51.428;6.682;2022-08-19T12:39:57;5.85;;;5.32;;
11797;SDS011;5956;51.428;6.682;2022-08-19T12:42:25;5.07;;;4.68;;
11797;SDS011;5956;51.428;6.682;2022-08-19T12:44:52;5.07;;;4.47;;
11797;SDS011;5956;51.428;6.682;2022-08-19T12:47:18;6.43;;;4.72;;
11797;SDS011;5956;51.428;6.682;2022-08-19T12:49:46;4.43;;;3.95;;
11797;SDS011;5956;51.428;6.682;2022-08-19T12:52:13;6.07;;;5.57;;
11797;SDS011;5956;51.428;6.682;2022-08-19T12:54:41;5.15;;;4.75;;
11797;SDS011;5956;51.428;6.682;2022-08-19T12:57:09;6.10;;;5.57;;
11797;SDS011;5956;51.428;6.682;2022-08-19T12:59:38;5.47;;;5.03;;
11797;SDS011;5956;51.428;6.682;2022-08-19T13:02:06;7.30;;;5.32;;
11797;SDS011;5956;51.428;6.682;2022-08-19T13:04:34;5.20;;;4.70;;
11797;SDS011;5956;51.428;6.682;2022-08-19T13:07:05;5.20;;;4.55;;
11797;SDS011;5956;51.428;6.682;2022-08-19T13:09:32;4.95;;;4.53;;
11797;SDS011;5956;51.428;6.682;2022-08-19T13:11:59;5.90;;;4.60;;
11797;SDS011;5956;51.428;6.682;2022-08-19T13:14:27;5.38;;;4.88;;
11797;SDS011;5956;51.428;6.682;2022-08-19T13:17:01;4.63;;;4.22;;
11797;SDS011;5956;51.428;6.682;2022-08-19T13:19:28;5.88;;;5.18;;
11797;SDS011;5956;51.428;6.682;2022-08-19T13:21:57;5.78;;;5.28;;
11797;SDS011;5956;51.428;6.682;2022-08-19T13:24:24;5.43;;;4.97;;
11797;SDS011;5956;51.428;6.682;2022-08-19T13:26:52;5.45;;;4.68;;
11797;SDS011;5956;51.428;6.682;2022-08-19T13:29:19;6.13;;;5.43;;
11797;SDS011;5956;51.428;6.682;2022-08-19T13:32:01;5.60;;;5.10;;
11797;SDS011;5956;51.428;6.682;2022-08-19T13:34:45;5.78;;;5.38;;
11797;SDS011;5956;51.428;6.682;2022-08-19T13:37:11;5.78;;;5.28;;
11797;SDS011;5956;51.428;6.682;2022-08-19T13:39:37;7.60;;;5.25;;
11797;SDS011;5956;51.428;6.682;2022-08-19T13:42:03;5.82;;;5.32;;
11797;SDS011;5956;51.428;6.682;2022-08-19T13:44:32;6.38;;;5.55;;
11797;SDS011;5956;51.428;6.682;2022-08-19T13:47:02;5.70;;;5.30;;
11797;SDS011;5956;51.428;6.682;2022-08-19T13:49:32;5.80;;;5.28;;
11797;SDS011;5956;51.428;6.682;2022-08-19T13:52:00;5.47;;;4.97;;
11797;SDS011;5956;51.428;6.682;2022-08-19T13:54:27;6.38;;;5.97;;
11797;SDS011;5956;51.428;6.682;2022-08-19T13:56:54;6.57;;;6.00;;
11797;SDS011;5956;51.428;6.682;2022-08-19T13:59:21;17.23;;;7.90;;
11797;SDS011;5956;51.428;6.682;2022-08-19T14:01:51;7.50;;;6.80;;
11797;SDS011;5956;51.428;6.682;2022-08-19T14:04:19;7.25;;;6.65;;
11797;SDS011;5956;51.428;6.682;2022-08-19T14:06:46;7.35;;;5.90;;
11797;SDS011;5956;51.428;6.682;2022-08-19T14:09:13;7.30;;;6.47;;
11797;SDS011;5956;51.428;6.682;2022-08-19T14:11:40;6.13;;;5.60;;
11797;SDS011;5956;51.428;6.682;2022-08-19T14:14:07;6.13;;;5.55;;
11797;SDS011;5956;51.428;6.682;2022-08-19T14:16:34;6.18;;;5.57;;
11797;SDS011;5956;51.428;6.682;2022-08-19T14:19:01;6.88;;;6.28;;
11797;SDS011;5956;51.428;6.682;2022-08-19T14:21:29;6.40;;;5.80;;
11797;SDS011;5956;51.428;6.682;2022-08-19T14:23:55;5.70;;;5.15;;
11797;SDS011;5956;51.428;6.682;2022-08-19T14:26:23;5.75;;;5.30;;
11797;SDS011;5956;51.428;6.682;2022-08-19T14:28:51;5.35;;;4.85;;
11797;SDS011;5956;51.428;6.682;2022-08-19T14:31:18;5.85;;;5.18;;
11797;SDS011;5956;51.428;6.682;2022-08-19T14:33:48;5.28;;;4.82;;
11797;SDS011;5956;51.428;6.682;2022-08-19T14:36:16;5.10;;;4.68;;
11797;SDS011;5956;51.428;6.682;2022-08-19T14:38:44;5.47;;;4.68;;
11797;SDS011;5956;51.428;6.682;2022-08-19T14:41:13;5.78;;;4.53;;
11797;SDS011;5956;51.428;6.682;2022-08-19T14:43:42;5.35;;;4.85;;
11797;SDS011;5956;51.428;6.682;2022-08-19T14:46:12;5.75;;;4.95;;
11797;SDS011;5956;51.428;6.682;2022-08-19T14:48:39;6.03;;;4.95;;
11797;SDS011;5956;51.428;6.682;2022-08-19T14:51:06;4.85;;;4.40;;